createdAt,value
2018-08-16T00:00:45.941Z,5.90
2018-08-16T00:03:14.370Z,5.17
2018-08-16T00:05:42.354Z,5.30
2018-08-16T00:08:10.879Z,5.80
2018-08-16T00:10:38.778Z,5.80
2018-08-16T00:13:06.740Z,6.20
2018-08-16T00:15:34.731Z,5.30
2018-08-16T00:18:03.292Z,5.30
2018-08-16T00:20:31.196Z,5.50
2018-08-16T00:22:59.141Z,5.70
2018-08-16T00:25:27.058Z,4.20
2018-08-16T00:27:55.584Z,4.67
2018-08-16T00:30:23.995Z,5.40
2018-08-16T00:32:52.501Z,4.90
2018-08-16T00:35:20.461Z,5.17
2018-08-16T00:37:48.458Z,5.80
2018-08-16T00:40:17.415Z,5.77
2018-08-16T00:42:45.277Z,5.87
2018-08-16T00:45:13.818Z,4.80
2018-08-16T00:47:41.816Z,5.23
2018-08-16T00:50:11.338Z,4.40
2018-08-16T00:52:39.267Z,5.97
2018-08-16T00:55:08.677Z,5.07
2018-08-16T00:57:37.052Z,6.07
2018-08-16T01:00:06.125Z,5.73
2018-08-16T01:02:34.015Z,6.17
2018-08-16T01:05:03.131Z,6.50
2018-08-16T01:07:31.057Z,5.20
2018-08-16T01:09:59.603Z,5.17
2018-08-16T01:12:27.828Z,5.90
2018-08-16T01:14:56.885Z,5.73
2018-08-16T01:17:24.890Z,4.33
2018-08-16T01:19:52.804Z,4.40
2018-08-16T01:22:20.764Z,4.67
2018-08-16T01:24:48.631Z,5.53
2018-08-16T01:27:16.592Z,4.80
2018-08-16T01:29:44.441Z,5.40
2018-08-16T01:32:12.623Z,5.50
2018-08-16T01:34:40.561Z,5.00
2018-08-16T01:37:09.404Z,5.03
2018-08-16T01:39:37.341Z,5.83
2018-08-16T01:42:05.326Z,6.10
2018-08-16T01:44:33.262Z,6.27
2018-08-16T01:47:01.724Z,6.53
2018-08-16T01:49:34.755Z,6.83
2018-08-16T01:52:02.809Z,5.87
2018-08-16T01:54:30.949Z,5.83
2018-08-16T01:56:59.608Z,6.00
2018-08-16T01:59:27.577Z,6.60
2018-08-16T02:01:55.789Z,5.53
2018-08-16T02:04:24.407Z,6.50
2018-08-16T02:06:53.304Z,5.30
2018-08-16T02:09:22.811Z,5.30
2018-08-16T02:11:51.196Z,6.40
2018-08-16T02:14:19.475Z,5.83
2018-08-16T02:16:48.695Z,7.90
2018-08-16T02:19:17.375Z,6.30
2018-08-16T02:21:45.282Z,6.17
2018-08-16T02:24:13.220Z,5.30
2018-08-16T02:26:41.954Z,5.30
2018-08-16T02:29:09.926Z,5.17
2018-08-16T02:31:37.859Z,5.57
2018-08-16T02:34:06.090Z,6.20
2018-08-16T02:36:34.016Z,6.03
2018-08-16T02:39:02.023Z,5.17
2018-08-16T02:41:30.317Z,5.43
2018-08-16T02:43:58.887Z,6.03
2018-08-16T02:46:27.597Z,5.90
2018-08-16T02:48:55.536Z,5.63
2018-08-16T02:51:23.401Z,5.47
2018-08-16T02:53:51.291Z,5.33
2018-08-16T02:56:19.306Z,5.33
2018-08-16T02:58:47.207Z,5.73
2018-08-16T03:01:15.765Z,6.70
2018-08-16T03:03:44.379Z,5.83
2018-08-16T03:06:12.899Z,6.00
2018-08-16T03:08:40.791Z,6.60
2018-08-16T03:11:09.627Z,6.10
2018-08-16T03:13:37.860Z,6.53
2018-08-16T03:16:06.557Z,7.03
2018-08-16T03:18:34.749Z,6.77
2018-08-16T03:21:03.438Z,6.80
2018-08-16T03:23:31.384Z,8.27
2018-08-16T03:25:59.327Z,7.67
2018-08-16T03:28:27.215Z,6.40
2018-08-16T03:30:55.824Z,7.37
2018-08-16T03:33:24.767Z,6.40
2018-08-16T03:35:52.700Z,7.40
2018-08-16T03:38:21.474Z,6.40
2018-08-16T03:40:58.040Z,6.73
2018-08-16T03:43:25.960Z,7.90
2018-08-16T03:45:53.906Z,6.07
2018-08-16T03:48:21.815Z,6.57
2018-08-16T03:50:50.199Z,6.67
2018-08-16T03:53:18.066Z,6.47
2018-08-16T03:55:46.491Z,6.20
2018-08-16T03:58:15.153Z,6.47
2018-08-16T04:00:43.084Z,6.33
2018-08-16T04:03:10.997Z,6.53
2018-08-16T04:05:38.913Z,6.70
2018-08-16T04:08:06.858Z,5.90
2018-08-16T04:10:35.130Z,6.33
2018-08-16T04:13:03.114Z,5.93
2018-08-16T04:15:31.365Z,7.10
2018-08-16T04:17:59.325Z,7.17
2018-08-16T04:20:27.578Z,6.20
2018-08-16T04:22:55.527Z,7.27
2018-08-16T04:25:23.497Z,7.00
2018-08-16T04:27:51.385Z,6.73
2018-08-16T04:30:19.332Z,6.37
2018-08-16T04:32:47.210Z,6.67
2018-08-16T04:35:15.118Z,7.13
2018-08-16T04:37:43.822Z,6.30
2018-08-16T04:40:11.764Z,6.80
2018-08-16T04:42:40.515Z,7.20
2018-08-16T04:45:08.976Z,6.83
2018-08-16T04:47:37.651Z,8.03
2018-08-16T04:50:08.273Z,6.67
2018-08-16T04:52:36.343Z,8.40
2018-08-16T04:55:05.585Z,7.80
2018-08-16T04:57:34.134Z,7.80
2018-08-16T05:00:02.076Z,7.03
2018-08-16T05:02:29.996Z,7.27
2018-08-16T05:04:58.698Z,6.47
2018-08-16T05:07:26.658Z,7.40
2018-08-16T05:09:54.532Z,7.27
2018-08-16T05:12:22.496Z,6.57
2018-08-16T05:14:50.396Z,8.60
2018-08-16T05:17:18.758Z,7.57
2018-08-16T05:19:47.260Z,8.40
2018-08-16T05:22:15.182Z,8.20
2018-08-16T05:24:43.090Z,8.97
2018-08-16T05:27:11.037Z,6.73
2018-08-16T05:29:39.765Z,8.30
2018-08-16T05:32:07.878Z,7.57
2018-08-16T05:34:36.333Z,7.50
2018-08-16T05:37:04.336Z,8.73
2018-08-16T05:39:33.306Z,8.53
2018-08-16T05:42:02.623Z,9.93
2018-08-16T05:44:30.771Z,8.60
2018-08-16T05:46:59.141Z,9.40
2018-08-16T05:49:27.142Z,7.90
2018-08-16T05:51:55.063Z,8.50
2018-08-16T05:54:23.351Z,7.90
2018-08-16T05:56:51.321Z,7.57
2018-08-16T05:59:19.537Z,7.77
2018-08-16T06:01:47.868Z,7.90
2018-08-16T06:04:15.831Z,7.47
2018-08-16T06:06:44.373Z,7.93
2018-08-16T06:09:12.374Z,8.83
2018-08-16T06:11:40.324Z,7.13
2018-08-16T06:14:09.371Z,7.90
2018-08-16T06:16:37.849Z,8.10
2018-08-16T06:19:06.289Z,7.10
2018-08-16T06:21:34.344Z,6.40
2018-08-16T06:24:02.443Z,5.90
2018-08-16T06:26:31.133Z,6.60
2018-08-16T06:28:59.169Z,7.07
2018-08-16T06:31:28.697Z,6.00
2018-08-16T06:33:57.950Z,5.93
2018-08-16T06:36:25.858Z,6.60
2018-08-16T06:38:53.904Z,5.97
2018-08-16T06:41:21.813Z,5.30
2018-08-16T06:43:49.871Z,5.20
2018-08-16T06:46:18.697Z,5.07
2018-08-16T06:48:47.105Z,4.57
2018-08-16T06:51:15.027Z,4.40
2018-08-16T06:53:43.146Z,5.33
2018-08-16T06:56:11.291Z,5.17
2018-08-16T06:58:39.249Z,5.00
2018-08-16T07:01:08.165Z,5.10
2018-08-16T07:03:36.120Z,5.10
2018-08-16T07:06:04.024Z,4.43
2018-08-16T07:08:31.938Z,4.97
2018-08-16T07:11:00.626Z,5.40
2018-08-16T07:13:28.575Z,4.30
2018-08-16T07:15:56.560Z,4.63
2018-08-16T07:18:24.441Z,4.77
2018-08-16T07:20:52.538Z,3.63
2018-08-16T07:23:20.465Z,5.10
2018-08-16T07:25:48.367Z,4.07
2018-08-16T07:28:16.302Z,4.17
2018-08-16T07:30:44.287Z,4.27
2018-08-16T07:33:12.834Z,3.30
2018-08-16T07:35:40.814Z,3.63
2018-08-16T07:38:10.001Z,4.07
2018-08-16T07:40:37.957Z,3.50
2018-08-16T07:43:05.887Z,3.53
2018-08-16T07:45:33.861Z,3.63
2018-08-16T07:48:01.859Z,3.20
2018-08-16T07:50:29.817Z,3.50
2018-08-16T07:52:58.363Z,3.57
2018-08-16T07:55:26.287Z,3.63
2018-08-16T07:57:54.288Z,15.17
2018-08-16T08:00:22.382Z,3.73
2018-08-16T08:02:50.362Z,3.13
2018-08-16T08:05:18.343Z,3.40
2018-08-16T08:07:46.281Z,4.07
2018-08-16T08:10:15.500Z,3.60
2018-08-16T08:12:45.079Z,3.90
2018-08-16T08:15:14.815Z,4.17
2018-08-16T08:17:42.805Z,3.77
2018-08-16T08:20:14.047Z,2.70
2018-08-16T08:22:42.492Z,3.40
2018-08-16T08:25:16.650Z,3.30
2018-08-16T08:27:45.351Z,4.23
2018-08-16T08:30:15.521Z,3.70
2018-08-16T08:32:44.255Z,4.00
2018-08-16T08:35:13.426Z,3.23
2018-08-16T08:38:17.088Z,3.37
2018-08-16T08:40:45.128Z,3.27
2018-08-16T08:44:20.254Z,3.57
2018-08-16T08:46:50.249Z,2.90
2018-08-16T08:49:18.567Z,2.40
2018-08-16T08:51:48.269Z,2.70
2018-08-16T08:54:32.207Z,2.90
2018-08-16T08:57:12.123Z,2.60
2018-08-16T08:59:40.600Z,3.20
2018-08-16T09:02:10.508Z,3.10
2018-08-16T09:04:38.586Z,2.60
2018-08-16T09:07:08.576Z,2.43
2018-08-16T09:09:36.600Z,3.23
2018-08-16T09:12:18.199Z,2.73
2018-08-16T09:14:59.888Z,2.70
2018-08-16T09:17:27.847Z,3.00
2018-08-16T09:19:56.364Z,2.20
2018-08-16T09:22:25.750Z,2.47
2018-08-16T09:24:54.289Z,2.50
2018-08-16T09:27:22.252Z,2.43
2018-08-16T09:30:12.602Z,3.10
2018-08-16T09:32:52.216Z,2.67
2018-08-16T09:35:20.156Z,2.97
2018-08-16T09:37:48.039Z,2.60
2018-08-16T09:40:15.930Z,3.40
2018-08-16T09:42:44.160Z,2.53
2018-08-16T09:45:24.230Z,2.63
2018-08-16T09:48:03.574Z,2.90
2018-08-16T09:50:32.469Z,2.37
2018-08-16T09:53:00.411Z,3.17
2018-08-16T09:55:28.620Z,2.30
2018-08-16T09:57:58.103Z,3.13
2018-08-16T10:00:31.734Z,2.50
2018-08-16T10:02:59.782Z,2.70
2018-08-16T10:05:27.738Z,2.77
2018-08-16T10:07:55.638Z,5.10
2018-08-16T10:10:23.574Z,2.80
2018-08-16T10:12:51.610Z,2.73
2018-08-16T10:15:20.408Z,2.10
2018-08-16T10:17:50.263Z,2.50
2018-08-16T10:20:18.220Z,2.43
2018-08-16T10:22:47.497Z,2.40
2018-08-16T10:25:15.971Z,2.50
2018-08-16T10:27:43.922Z,2.73
2018-08-16T10:30:12.452Z,2.70
2018-08-16T10:32:40.391Z,3.20
2018-08-16T10:35:08.405Z,3.00
2018-08-16T10:37:36.701Z,3.03
2018-08-16T10:40:05.551Z,2.80
2018-08-16T10:42:33.505Z,2.57
2018-08-16T10:45:03.426Z,2.80
2018-08-16T10:47:31.337Z,2.80
2018-08-16T10:49:59.361Z,2.70
2018-08-16T10:52:27.383Z,1.93
2018-08-16T10:54:55.632Z,2.67
2018-08-16T10:57:24.453Z,2.80
2018-08-16T10:59:53.065Z,2.80
2018-08-16T11:02:20.991Z,2.43
2018-08-16T11:04:49.792Z,2.23
2018-08-16T11:07:17.740Z,3.10
2018-08-16T11:09:45.685Z,2.80
2018-08-16T11:12:14.489Z,2.47
2018-08-16T11:14:43.767Z,2.43
2018-08-16T11:17:12.102Z,2.70
2018-08-16T11:19:40.507Z,2.40
2018-08-16T11:22:09.533Z,2.60
2018-08-16T11:24:37.620Z,2.70
2018-08-16T11:27:06.472Z,2.20
2018-08-16T11:29:35.174Z,2.67
2018-08-16T11:32:03.152Z,2.50
2018-08-16T11:34:32.013Z,2.30
2018-08-16T11:37:00.150Z,2.90
2018-08-16T11:39:28.056Z,2.50
2018-08-16T11:41:55.980Z,2.60
2018-08-16T11:44:24.743Z,2.30
2018-08-16T11:46:52.960Z,2.20
2018-08-16T11:49:20.910Z,1.90
2018-08-16T11:51:48.835Z,2.20
2018-08-16T11:54:17.627Z,2.40
2018-08-16T11:56:46.142Z,2.33
2018-08-16T11:59:14.106Z,2.10
2018-08-16T12:01:42.813Z,2.07
2018-08-16T12:04:10.747Z,2.83
2018-08-16T12:06:38.789Z,1.83
2018-08-16T12:09:08.144Z,2.10
2018-08-16T12:11:36.039Z,1.70
2018-08-16T12:14:04.285Z,2.30
2018-08-16T12:16:33.491Z,2.10
2018-08-16T12:19:01.446Z,2.10
2018-08-16T12:21:29.728Z,2.70
2018-08-16T12:23:57.685Z,2.23
2018-08-16T12:26:25.636Z,2.20
2018-08-16T12:28:54.560Z,2.33
2018-08-16T12:31:22.854Z,2.00
2018-08-16T12:33:51.175Z,1.93
2018-08-16T12:36:19.738Z,2.20
2018-08-16T12:38:48.919Z,1.80
2018-08-16T12:41:16.848Z,2.33
2018-08-16T12:43:44.923Z,2.30
2018-08-16T12:46:12.880Z,2.10
2018-08-16T12:48:41.109Z,2.30
2018-08-16T12:51:09.098Z,2.10
2018-08-16T12:53:38.038Z,1.90
2018-08-16T12:56:06.048Z,2.67
2018-08-16T12:58:33.998Z,2.13
2018-08-16T13:01:02.577Z,2.43
2018-08-16T13:03:31.133Z,2.17
2018-08-16T13:05:59.112Z,2.10
2018-08-16T13:08:27.628Z,2.03
2018-08-16T13:10:55.555Z,2.27
2018-08-16T13:13:23.496Z,2.27
2018-08-16T13:15:51.441Z,1.90
2018-08-16T13:18:19.444Z,2.47
2018-08-16T13:20:47.340Z,2.20
2018-08-16T13:23:15.882Z,2.30
2018-08-16T13:25:43.840Z,2.17
2018-08-16T13:28:11.996Z,2.57
2018-08-16T13:30:39.918Z,2.40
2018-08-16T13:33:08.444Z,2.00
2018-08-16T13:35:36.385Z,2.43
2018-08-16T13:38:04.525Z,1.90
2018-08-16T13:40:32.503Z,2.10
2018-08-16T13:43:00.454Z,2.20
2018-08-16T13:45:28.377Z,2.07
2018-08-16T13:47:56.358Z,1.80
2018-08-16T13:50:28.828Z,2.00
2018-08-16T13:52:58.384Z,2.40
2018-08-16T13:55:26.423Z,2.50
2018-08-16T13:57:55.100Z,2.77
2018-08-16T14:00:23.513Z,2.00
2018-08-16T14:02:51.790Z,2.20
2018-08-16T14:05:20.405Z,2.13
2018-08-16T14:07:48.297Z,1.90
2018-08-16T14:10:16.635Z,2.00
2018-08-16T14:12:44.633Z,1.83
2018-08-16T14:15:12.565Z,1.70
2018-08-16T14:17:40.558Z,1.97
2018-08-16T14:22:27.754Z,2.00
2018-08-16T14:24:56.911Z,2.27
2018-08-16T14:27:24.895Z,1.50
2018-08-16T14:29:52.827Z,1.90
2018-08-16T14:32:20.911Z,1.97
2018-08-16T14:34:48.950Z,2.20
2018-08-16T14:37:17.576Z,1.87
2018-08-16T14:39:45.489Z,1.90
2018-08-16T14:42:13.477Z,1.70
2018-08-16T14:44:41.912Z,1.80
2018-08-16T14:47:10.194Z,2.00
2018-08-16T14:49:38.772Z,2.00
2018-08-16T14:52:06.769Z,2.00
2018-08-16T14:57:04.728Z,2.00
2018-08-16T14:59:32.666Z,1.80
2018-08-16T15:02:00.606Z,1.60
2018-08-16T15:04:28.507Z,1.73
2018-08-16T15:06:57.575Z,2.50
2018-08-16T15:09:27.418Z,2.23
2018-08-16T15:11:56.042Z,2.07
2018-08-16T15:14:23.940Z,1.60
2018-08-16T15:16:51.899Z,1.83
2018-08-16T15:19:19.987Z,1.80
2018-08-16T15:21:48.317Z,1.83
2018-08-16T15:24:17.523Z,1.87
2018-08-16T15:26:46.610Z,1.80
2018-08-16T15:29:14.548Z,1.87
2018-08-16T15:31:42.494Z,2.13
2018-08-16T15:34:10.409Z,1.63
2018-08-16T15:36:38.608Z,2.20
2018-08-16T15:39:08.919Z,1.97
2018-08-16T15:41:37.003Z,2.30
2018-08-16T15:44:06.037Z,1.97
2018-08-16T15:46:34.516Z,1.63
2018-08-16T15:49:03.440Z,1.80
2018-08-16T15:51:31.326Z,2.03
2018-08-16T15:54:00.712Z,2.17
2018-08-16T15:56:28.819Z,1.80
2018-08-16T15:58:57.436Z,1.53
2018-08-16T16:01:25.472Z,1.93
2018-08-16T16:03:53.558Z,1.77
2018-08-16T16:06:21.936Z,1.93
2018-08-16T16:08:49.897Z,2.33
2018-08-16T16:11:18.148Z,1.50
2018-08-16T16:13:46.103Z,1.83
2018-08-16T16:16:13.985Z,1.77
2018-08-16T16:18:41.945Z,1.63
2018-08-16T16:21:09.931Z,1.60
2018-08-16T16:23:38.657Z,2.10
2018-08-16T16:26:06.590Z,1.83
2018-08-16T16:28:34.504Z,2.20
2018-08-16T16:31:02.456Z,1.50
2018-08-16T16:33:30.999Z,2.03
2018-08-16T16:36:00.244Z,1.77
2018-08-16T16:38:28.300Z,1.50
2018-08-16T16:40:56.182Z,1.97
2018-08-16T16:43:25.255Z,2.07
2018-08-16T16:45:53.623Z,2.30
2018-08-16T16:48:21.571Z,2.20
2018-08-16T16:50:50.250Z,2.00
2018-08-16T16:53:18.927Z,1.90
2018-08-16T16:55:47.823Z,1.90
2018-08-16T16:58:15.698Z,1.87
2018-08-16T17:00:43.704Z,1.70
2018-08-16T17:03:12.163Z,2.17
2018-08-16T17:05:40.183Z,2.13
2018-08-16T17:08:08.144Z,2.37
2018-08-16T17:10:36.095Z,2.20
2018-08-16T17:13:04.084Z,2.07
2018-08-16T17:15:32.017Z,2.23
2018-08-16T17:17:59.967Z,2.30
2018-08-16T17:20:28.258Z,2.10
2018-08-16T17:22:56.182Z,2.17
2018-08-16T17:25:24.125Z,2.70
2018-08-16T17:27:52.080Z,2.10
2018-08-16T17:30:20.715Z,2.30
2018-08-16T17:32:48.619Z,2.40
2018-08-16T17:35:16.584Z,2.50
2018-08-16T17:37:44.492Z,2.30
2018-08-16T17:40:12.419Z,2.40
2018-08-16T17:42:40.983Z,2.70
2018-08-16T17:45:09.933Z,3.43
2018-08-16T17:47:37.840Z,2.83
2018-08-16T17:50:06.146Z,3.17
2018-08-16T17:52:34.174Z,2.67
2018-08-16T17:55:03.146Z,2.80
2018-08-16T17:57:31.817Z,2.70
2018-08-16T17:59:59.892Z,2.40
2018-08-16T18:02:28.141Z,2.47
2018-08-16T18:04:57.130Z,2.57
2018-08-16T18:07:25.027Z,2.47
2018-08-16T18:09:52.928Z,2.40
2018-08-16T18:12:21.850Z,4.00
2018-08-16T18:14:49.930Z,3.50
2018-08-16T18:17:17.954Z,2.73
2018-08-16T18:19:45.887Z,3.73
2018-08-16T18:22:13.861Z,5.37
2018-08-16T18:24:42.725Z,2.90
2018-08-16T18:27:10.744Z,2.60
2018-08-16T18:29:40.460Z,3.13
2018-08-16T18:32:08.765Z,2.27
2018-08-16T18:34:37.421Z,2.47
2018-08-16T18:37:05.412Z,2.30
2018-08-16T18:39:33.318Z,3.00
2018-08-16T18:42:01.246Z,2.70
2018-08-16T18:44:29.208Z,2.23
2018-08-16T18:46:57.848Z,2.80
2018-08-16T18:49:25.785Z,3.10
2018-08-16T18:51:53.736Z,2.30
2018-08-16T18:54:21.725Z,2.73
2018-08-16T18:56:49.690Z,2.67
2018-08-16T18:59:17.651Z,2.50
2018-08-16T19:01:45.852Z,3.00
2018-08-16T19:04:15.166Z,3.37
2018-08-16T19:06:43.126Z,3.00
2018-08-16T19:09:11.065Z,2.90
2018-08-16T19:11:39.829Z,3.90
2018-08-16T19:14:08.466Z,3.27
2018-08-16T19:16:36.496Z,2.47
2018-08-16T19:19:06.116Z,2.77
2018-08-16T19:21:34.035Z,2.67
2018-08-16T19:24:01.923Z,3.20
2018-08-16T19:26:29.885Z,2.87
2018-08-16T19:28:58.345Z,3.70
2018-08-16T19:31:26.318Z,3.40
2018-08-16T19:33:54.801Z,2.87
2018-08-16T19:36:22.734Z,2.83
2018-08-16T19:38:51.440Z,2.57
2018-08-16T19:41:19.539Z,2.93
2018-08-16T19:43:47.426Z,2.67
2018-08-16T19:46:15.353Z,2.70
2018-08-16T19:48:43.274Z,3.37
2018-08-16T19:51:11.176Z,3.50
2018-08-16T19:53:39.093Z,4.03
2018-08-16T19:56:07.018Z,4.90
2018-08-16T19:58:36.337Z,3.53
2018-08-16T20:01:04.887Z,3.07
2018-08-16T20:03:33.735Z,3.90
2018-08-16T20:06:01.613Z,4.23
2018-08-16T20:08:29.950Z,3.70
2018-08-16T20:10:58.622Z,3.97
2018-08-16T20:13:27.199Z,3.67
2018-08-16T20:15:56.756Z,3.53
2018-08-16T20:18:24.708Z,3.53
2018-08-16T20:20:53.172Z,3.77
2018-08-16T20:23:21.280Z,4.07
2018-08-16T20:25:49.247Z,4.00
2018-08-16T20:28:18.521Z,2.87
2018-08-16T20:30:46.542Z,3.50
2018-08-16T20:33:14.962Z,3.60
2018-08-16T20:35:42.887Z,3.50
2018-08-16T20:38:11.218Z,4.43
2018-08-16T20:40:39.779Z,3.80
2018-08-16T20:43:07.726Z,3.43
2018-08-16T20:45:36.738Z,3.53
2018-08-16T20:48:05.388Z,3.43
2018-08-16T20:50:34.254Z,3.80
2018-08-16T20:53:03.380Z,4.10
2018-08-16T20:55:31.707Z,4.77
2018-08-16T20:58:00.895Z,4.10
2018-08-16T21:00:28.821Z,3.93
2018-08-16T21:02:56.740Z,3.60
2018-08-16T21:05:24.671Z,4.23
2018-08-16T21:07:54.124Z,4.23
2018-08-16T21:10:22.027Z,4.33
2018-08-16T21:12:50.790Z,4.07
2018-08-16T21:15:19.439Z,4.20
2018-08-16T21:17:48.562Z,4.43
2018-08-16T21:20:16.485Z,4.20
2018-08-16T21:22:45.410Z,4.40
2018-08-16T21:25:14.297Z,5.20
2018-08-16T21:27:42.798Z,5.27
2018-08-16T21:30:12.282Z,5.00
2018-08-16T21:32:40.243Z,4.60
2018-08-16T21:35:08.833Z,4.47
2018-08-16T21:37:37.448Z,4.80
2018-08-16T21:40:06.333Z,4.70
2018-08-16T21:42:34.842Z,5.23
2018-08-16T21:45:03.366Z,4.50
2018-08-16T21:47:32.646Z,4.47
2018-08-16T21:50:00.594Z,5.10
2018-08-16T21:52:28.536Z,4.13
2018-08-16T21:54:56.487Z,4.73
2018-08-16T21:57:25.026Z,4.17
2018-08-16T21:59:53.832Z,4.73
2018-08-16T22:02:22.829Z,4.47
2018-08-16T22:04:51.236Z,4.30
2018-08-16T22:08:29.205Z,4.27
2018-08-16T22:10:57.863Z,4.53
2018-08-16T22:13:25.773Z,4.60
2018-08-16T22:15:53.720Z,4.43
2018-08-16T22:18:21.724Z,5.23
2018-08-16T22:20:50.110Z,4.30
2018-08-16T22:23:17.973Z,4.70
2018-08-16T22:25:46.908Z,4.93
2018-08-16T22:28:14.888Z,4.70
2018-08-16T22:30:42.983Z,4.43
2018-08-16T22:33:11.667Z,4.67
2018-08-16T22:35:39.648Z,4.80
2018-08-16T22:38:07.569Z,5.10
2018-08-16T22:40:35.468Z,4.63
2018-08-16T22:43:04.194Z,5.40
2018-08-16T22:45:32.099Z,4.77
2018-08-16T22:48:00.003Z,5.40
2018-08-16T22:50:27.939Z,5.00
2018-08-16T22:52:55.802Z,5.30
2018-08-16T22:55:23.807Z,4.83
2018-08-16T22:57:52.250Z,4.83
2018-08-16T23:00:20.192Z,4.40
2018-08-16T23:02:48.159Z,4.50
2018-08-16T23:05:16.156Z,4.50
2018-08-16T23:07:43.967Z,5.10
2018-08-16T23:10:11.928Z,5.17
2018-08-16T23:12:39.921Z,5.40
2018-08-16T23:15:08.407Z,5.43
2018-08-16T23:17:36.487Z,5.97
2018-08-16T23:20:05.786Z,5.43
2018-08-16T23:22:34.331Z,4.63
2018-08-16T23:25:02.427Z,4.70
2018-08-16T23:27:30.370Z,5.30
2018-08-16T23:29:58.843Z,4.70
2018-08-16T23:32:27.044Z,5.43
2018-08-16T23:34:55.042Z,4.80
2018-08-16T23:37:24.025Z,6.00
2018-08-16T23:39:52.704Z,5.80
2018-08-16T23:42:20.623Z,5.40
2018-08-16T23:44:48.630Z,5.67
2018-08-16T23:47:21.922Z,5.30
2018-08-16T23:49:50.028Z,4.83
2018-08-16T23:52:18.171Z,5.53
2018-08-16T23:54:46.046Z,4.97
2018-08-16T23:57:13.945Z,6.00
2018-08-16T23:59:41.876Z,6.17
